Aérodrome :
LOGIN :

S'inscrire | Disclaimer

   EN    FR    IT 

 










Légende :    VFR   VFR Marginal   IFR   IFR Intensif   IFR Très Intensif
Visi : 
Plafond : 
>= 8 km
>= 3000ft
5 à 8 km
1000 à 3000 ft
1500m à 5 km
500 à 1000 ft
800 à 1500m
200 à 500 ft
< 800m
< 200 ft
Symboles :   Orages  Brouillard  Fortes neiges  Fortes précipitations  Vent > 20 kt
SIGMETs :   Divers  Orages  Givrage  Turbulence  Onde Orograph.  Cendres Volcan.






- Altitude de l'aérodrome : 74 ft
- Code IATA : NDZ


ETMN - Cuxhaven Nordholz Sea AB

DERNIER METAR :
  • 172020Z 23013G27KT 8000 -SHRA BKN019 BKN040 06/04 Q1008 WHT

METARs EXPIRÉS :
  • 171950Z 22010KT 9999 BKN020 SCT040 06/04 Q1008 WHT FCST CANCEL
  • 171922Z 24010KT 9999 FEW018TCU BKN027 06/04 Q1008 BLU BLU TEMPO WHT
  • 171820Z 23012KT 9999 BKN026 07/03 Q1008 BLU BLU TEMPO WHT

TAF AMD TAF ETMN
Valide du 17 à 18h jusqu'au 18 à 03h UTC


171921Z 1718/1803 24015G25KT 9999 NSW FEW022 BKN030
TEMPO 1718/1803 25020G32KT 5000 SHRA SCT012 BKN015CB CANCEL 2000



MET'MAP, la Météo Aéronautique d'un coup d'oeil ! - Copyright ORBIFLY Décembre 2007 - Disclaimer

ORBIFLY MET'MAP TEAM :

Programmation & Développement : Alexandra Zaïnal
Sur une idée originale de : Baudouin d'Aumeries
Assistance à la programmation : Marc-Olivier Méhu
Soutien technique & logistique : Manuel Goepfert

Contact : metmap@orbifly.com




SOURCES & CREDITS :

   NOAA